Odem, Texas
Current Conditions -  °F | °C
As of 4:51 AM on Friday 24 Oct 2014 (Local Time) from KCRP Reporting Station
Few Clouds Few Clouds  
Wind Chill: 64°   Ceiling: Unl
Heat Index: 64°   Visibility: 10mi
Dew Point: 63°   Wind: 6mph
Humidity: 96%   Direction: 320°NW
Pressure: 30.09"   Gusts: NA
Location:  27.95°N, 97.58°W
Report Text: KCRP 240951Z 32005KT 10SM FEW025 18/17 A3009 RMK AO2 SLP187 T01780172
Loading
Personal Weather Stations






























Interactive Weather Map
Tropical Storm Tracking
New forecast layout! Learn more

10-Day Weather Forecast

Advertisements
Track Severe Weather on mobile